Brno, Czech Republic
Current Conditions -  °F | °C
As of 9:43 AM on Saturday 25 Oct 2014 (Local Time) from LKTB Reporting Station
Drizzle Drizzle  
Wind Chill: 39°   Ceiling: 400
Heat Index: 39°   Visibility: 1.9mi
Dew Point: 37°   Wind: 2mph
Humidity: 93%   Direction: 100°E
Pressure: 30.24"   Gusts: NA
Location:  49.2°N, 16.61°E
Report Text: LKTB 250743Z 10002KT 3100 -DZ BR OVC004 04/03 Q1024 RMK REGQNH 1018
Loading
Personal Weather Stations






























Interactive Weather Map
Tropical Storm Tracking
New forecast layout! Learn more

10-Day Weather Forecast

Advertisements
Track Severe Weather on mobile